createdAt,value
2022-11-18T00:01:35.812Z,19.10
2022-11-18T00:04:02.452Z,21.20
2022-11-18T00:06:30.181Z,21.70
2022-11-18T00:08:58.753Z,23.00
2022-11-18T00:11:45.235Z,24.47
2022-11-18T00:14:21.093Z,21.90
2022-11-18T00:17:02.077Z,22.40
2022-11-18T00:19:31.755Z,17.83
2022-11-18T00:21:58.414Z,21.87
2022-11-18T00:24:26.168Z,26.13
2022-11-18T00:26:53.583Z,21.97
2022-11-18T00:29:20.863Z,25.50
2022-11-18T00:31:48.289Z,27.80
2022-11-18T00:34:17.428Z,24.30
2022-11-18T00:36:44.912Z,23.60
2022-11-18T00:39:13.295Z,30.07
2022-11-18T00:41:58.798Z,27.77
2022-11-18T00:44:25.420Z,23.20
2022-11-18T00:46:52.237Z,22.93
2022-11-18T00:49:19.186Z,22.70
2022-11-18T00:51:45.996Z,26.23
2022-11-18T00:54:12.713Z,29.13
2022-11-18T00:56:39.317Z,29.17
2022-11-18T00:59:05.968Z,30.63
2022-11-18T01:01:32.660Z,35.47
2022-11-18T01:03:59.363Z,22.53
2022-11-18T01:06:26.103Z,23.00
2022-11-18T01:08:52.710Z,26.20
2022-11-18T01:11:38.205Z,24.60
2022-11-18T01:14:04.867Z,28.00
2022-11-18T01:16:31.660Z,29.47
2022-11-18T01:18:58.438Z,25.50
2022-11-18T01:21:25.472Z,28.37
2022-11-18T01:23:53.359Z,24.87
2022-11-18T01:26:20.125Z,24.97
2022-11-18T01:28:46.774Z,22.83
2022-11-18T01:31:19.084Z,25.70
2022-11-18T01:33:46.909Z,27.40
2022-11-18T01:36:27.652Z,26.50
2022-11-18T01:38:55.300Z,27.30
2022-11-18T01:41:25.261Z,28.93
2022-11-18T01:44:25.728Z,27.70
2022-11-18T01:46:52.342Z,25.33
2022-11-18T01:49:19.434Z,28.20
2022-11-18T01:51:51.969Z,23.10
2022-11-18T01:54:21.693Z,29.17
2022-11-18T01:56:52.843Z,28.43
2022-11-18T01:59:24.096Z,35.33
2022-11-18T02:01:52.202Z,23.10
2022-11-18T02:04:25.165Z,29.60
2022-11-18T02:06:52.415Z,33.37
2022-11-18T02:09:19.304Z,32.23
2022-11-18T02:11:53.871Z,26.63
2022-11-18T02:14:22.724Z,28.50
2022-11-18T02:17:11.044Z,26.70
2022-11-18T02:19:46.962Z,28.90
2022-11-18T02:22:51.031Z,32.30
2022-11-18T02:25:23.925Z,29.70
2022-11-18T02:28:24.307Z,26.50
2022-11-18T02:31:12.893Z,25.30
2022-11-18T02:33:55.463Z,29.27
2022-11-18T02:36:31.870Z,26.47
2022-11-18T02:39:04.879Z,27.60
2022-11-18T02:41:35.125Z,25.20
2022-11-18T02:44:15.262Z,29.10
2022-11-18T02:46:47.316Z,31.27
2022-11-18T02:49:22.834Z,25.70
2022-11-18T02:51:51.643Z,27.50
2022-11-18T02:54:21.612Z,26.47
2022-11-18T02:56:50.752Z,25.73
2022-11-18T02:59:20.740Z,26.20
2022-11-18T03:01:48.146Z,23.77
2022-11-18T03:04:16.800Z,24.83
2022-11-18T03:06:52.579Z,29.40
2022-11-18T03:09:25.607Z,25.80
2022-11-18T03:12:15.643Z,26.17
2022-11-18T03:15:19.903Z,23.23
2022-11-18T03:18:06.139Z,21.67
2022-11-18T03:20:39.453Z,25.70
2022-11-18T03:23:20.243Z,24.30
2022-11-18T03:25:59.161Z,26.30
2022-11-18T03:28:49.556Z,24.17
2022-11-18T03:31:19.813Z,22.80
2022-11-18T03:33:50.313Z,20.93
2022-11-18T03:36:19.005Z,20.23
2022-11-18T03:38:52.855Z,22.97
2022-11-18T03:41:21.845Z,20.70
2022-11-18T03:43:58.464Z,24.40
2022-11-18T03:46:49.041Z,19.20
2022-11-18T03:49:26.441Z,19.17
2022-11-18T03:51:58.300Z,20.50
2022-11-18T03:54:29.591Z,30.50
2022-11-18T03:57:05.452Z,20.33
2022-11-18T03:59:36.984Z,20.47
2022-11-18T04:02:14.584Z,23.47
2022-11-18T04:04:43.925Z,26.57
2022-11-18T04:07:42.085Z,22.73
2022-11-18T04:10:14.571Z,23.03
2022-11-18T04:13:06.000Z,22.80
2022-11-18T04:15:33.554Z,24.20
2022-11-18T04:18:00.201Z,19.03
2022-11-18T04:20:28.344Z,22.90
2022-11-18T04:22:55.208Z,27.70
2022-11-18T04:25:22.007Z,22.07
2022-11-18T04:27:48.574Z,22.00
2022-11-18T04:30:15.163Z,22.10
2022-11-18T04:32:41.774Z,21.10
2022-11-18T04:35:08.573Z,25.37
2022-11-18T04:37:35.540Z,20.97
2022-11-18T04:40:02.355Z,22.37
2022-11-18T04:42:28.954Z,22.80
2022-11-18T04:44:55.557Z,24.20
2022-11-18T04:47:22.231Z,26.00
2022-11-18T04:49:48.854Z,23.83
2022-11-18T04:52:15.538Z,25.40
2022-11-18T04:54:42.152Z,26.50
2022-11-18T04:57:08.884Z,23.00
2022-11-18T04:59:35.511Z,24.93
2022-11-18T05:02:02.237Z,24.60
2022-11-18T05:04:31.569Z,28.37
2022-11-18T05:06:59.417Z,24.73
2022-11-18T05:09:31.569Z,34.07
2022-11-18T05:12:17.161Z,25.97
2022-11-18T05:14:49.356Z,19.67
2022-11-18T05:17:17.220Z,24.10
2022-11-18T05:19:43.806Z,24.17
2022-11-18T05:22:10.478Z,26.53
2022-11-18T05:24:37.132Z,29.30
2022-11-18T05:27:03.865Z,24.87
2022-11-18T05:29:30.498Z,28.60
2022-11-18T05:31:57.138Z,25.30
2022-11-18T05:34:23.762Z,25.77
2022-11-18T05:36:50.404Z,28.60
2022-11-18T05:39:17.390Z,22.53
2022-11-18T05:42:03.096Z,27.80
2022-11-18T05:44:29.741Z,29.33
2022-11-18T05:46:56.597Z,25.90
2022-11-18T05:49:23.688Z,24.90
2022-11-18T05:51:50.316Z,25.83
2022-11-18T05:54:19.237Z,28.63
2022-11-18T05:56:46.073Z,26.43
2022-11-18T05:59:13.944Z,31.50
2022-11-18T06:01:50.004Z,27.90
2022-11-18T06:04:24.990Z,31.23
2022-11-18T06:06:54.716Z,28.00
2022-11-18T06:09:24.572Z,29.70
2022-11-18T06:11:56.006Z,28.07
2022-11-18T06:14:24.945Z,25.30
2022-11-18T06:16:56.064Z,31.13
2022-11-18T06:19:22.810Z,26.80
2022-11-18T06:21:49.624Z,24.40
2022-11-18T06:24:17.627Z,28.30
2022-11-18T06:26:45.289Z,28.83
2022-11-18T06:29:14.495Z,27.10
2022-11-18T06:31:41.307Z,27.50
2022-11-18T06:34:07.931Z,21.23
2022-11-18T06:36:34.545Z,28.13
2022-11-18T06:39:05.652Z,28.63
2022-11-18T06:41:32.771Z,24.87
2022-11-18T06:43:59.773Z,33.57
2022-11-18T06:46:48.283Z,29.80
2022-11-18T06:49:15.125Z,29.03
2022-11-18T06:51:41.884Z,10.17
2022-11-18T06:54:11.010Z,38.43
2022-11-18T06:56:38.077Z,31.10
2022-11-18T06:59:05.016Z,34.17
2022-11-18T07:01:35.150Z,30.97
2022-11-18T07:04:02.201Z,27.90
2022-11-18T07:06:34.240Z,30.27
2022-11-18T07:09:03.082Z,29.63
2022-11-18T07:11:29.880Z,29.70
2022-11-18T07:13:56.735Z,31.33
2022-11-18T07:16:25.350Z,26.13
2022-11-18T07:18:53.217Z,30.00
2022-11-18T07:21:22.415Z,30.03
2022-11-18T07:23:49.458Z,30.77
2022-11-18T07:26:16.550Z,29.83
2022-11-18T07:28:43.271Z,33.70
2022-11-18T07:31:12.511Z,27.97
2022-11-18T07:33:40.455Z,28.73
2022-11-18T07:36:13.262Z,31.57
2022-11-18T07:38:40.466Z,28.73
2022-11-18T07:41:16.616Z,23.60
2022-11-18T07:43:44.170Z,31.63
2022-11-18T07:46:21.454Z,33.67
2022-11-18T07:48:50.037Z,30.20
2022-11-18T07:51:18.442Z,30.07
2022-11-18T07:53:45.830Z,21.60
2022-11-18T07:56:13.241Z,23.50
2022-11-18T07:58:40.884Z,23.30
2022-11-18T08:01:13.715Z,25.33
2022-11-18T08:03:41.796Z,25.33
2022-11-18T08:06:10.964Z,24.07
2022-11-18T08:08:37.804Z,20.90
2022-11-18T08:11:07.157Z,30.00
2022-11-18T08:13:34.401Z,25.37
2022-11-18T08:16:01.237Z,26.57
2022-11-18T08:18:32.216Z,23.07
2022-11-18T08:21:05.416Z,26.67
2022-11-18T08:23:36.090Z,25.67
2022-11-18T08:26:13.137Z,19.57
2022-11-18T08:28:40.943Z,22.63
2022-11-18T08:31:15.881Z,25.23
2022-11-18T08:33:42.596Z,21.90
2022-11-18T08:36:18.296Z,18.27
2022-11-18T08:38:45.097Z,18.40
2022-11-18T08:41:17.472Z,19.00
2022-11-18T08:43:44.243Z,21.53
2022-11-18T08:46:10.944Z,22.70
2022-11-18T08:48:37.580Z,19.20
2022-11-18T08:51:04.641Z,23.53
2022-11-18T08:53:31.494Z,21.60
2022-11-18T08:55:59.181Z,20.60
2022-11-18T08:58:26.774Z,22.53
2022-11-18T09:00:53.448Z,20.60
2022-11-18T09:03:20.410Z,20.77
2022-11-18T09:05:47.178Z,21.63
2022-11-18T09:08:13.914Z,22.07
2022-11-18T09:10:40.541Z,21.47
2022-11-18T09:13:38.697Z,22.03
2022-11-18T09:15:54.116Z,17.40
2022-11-18T09:18:21.568Z,19.60
2022-11-18T09:21:02.341Z,21.10
2022-11-18T09:23:28.967Z,19.47
2022-11-18T09:26:04.649Z,18.93
2022-11-18T09:28:31.374Z,18.23
2022-11-18T09:30:58.085Z,18.67
2022-11-18T09:33:25.003Z,19.23
2022-11-18T09:35:51.785Z,21.00
2022-11-18T09:38:18.440Z,14.50
2022-11-18T09:41:19.917Z,19.60
2022-11-18T09:44:00.091Z,15.50
2022-11-18T09:46:35.100Z,15.27
2022-11-18T09:49:20.842Z,15.90
2022-11-18T09:51:50.179Z,14.60
2022-11-18T09:54:23.514Z,14.80
2022-11-18T09:56:52.651Z,14.50
2022-11-18T09:59:22.804Z,15.87
2022-11-18T10:01:50.943Z,16.40
2022-11-18T10:04:20.930Z,16.23
2022-11-18T10:06:49.389Z,14.43
2022-11-18T10:09:37.833Z,14.80
2022-11-18T10:12:19.160Z,19.73
2022-11-18T10:15:00.852Z,16.67
2022-11-18T10:18:09.842Z,13.77
2022-11-18T10:21:01.186Z,13.30
2022-11-18T10:23:42.481Z,11.90
2022-11-18T10:26:09.116Z,12.03
2022-11-18T10:28:35.700Z,13.17
2022-11-18T10:31:11.316Z,16.83
2022-11-18T10:33:38.920Z,13.43
2022-11-18T10:36:18.764Z,13.40
2022-11-18T10:38:49.878Z,11.83
2022-11-18T10:41:19.998Z,12.20
2022-11-18T10:43:48.989Z,11.80
2022-11-18T10:46:16.633Z,10.10
2022-11-18T10:48:43.325Z,8.30
2022-11-18T10:51:24.092Z,7.90
2022-11-18T10:53:50.938Z,5.90
2022-11-18T10:56:17.869Z,9.53
2022-11-18T10:58:48.654Z,7.00
2022-11-18T11:01:27.539Z,8.37
2022-11-18T11:04:12.107Z,10.90
2022-11-18T11:06:39.371Z,8.10
2022-11-18T11:09:14.050Z,12.23
2022-11-18T11:11:43.580Z,9.30
2022-11-18T11:14:28.791Z,8.20
2022-11-18T11:17:06.419Z,10.00
2022-11-18T11:19:42.274Z,11.03
2022-11-18T11:22:11.358Z,8.70
2022-11-18T11:24:39.007Z,10.83
2022-11-18T11:30:22.861Z,7.50
2022-11-18T11:33:04.517Z,10.27
2022-11-18T11:35:55.337Z,10.13
2022-11-18T11:38:42.772Z,12.80
2022-11-18T11:41:27.460Z,8.00
2022-11-18T11:44:19.629Z,8.40
2022-11-18T11:47:42.468Z,7.50
2022-11-18T11:50:30.027Z,11.60
2022-11-18T11:53:17.036Z,7.80
2022-11-18T11:56:11.873Z,14.57
2022-11-18T11:58:50.400Z,11.70
2022-11-18T12:01:41.813Z,14.20
2022-11-18T12:04:32.953Z,8.30
2022-11-18T12:07:00.405Z,12.07
2022-11-18T12:10:05.827Z,10.70
2022-11-18T12:12:54.577Z,11.10
2022-11-18T12:15:45.904Z,12.37
2022-11-18T12:18:21.057Z,13.93
2022-11-18T12:20:53.226Z,8.10
2022-11-18T12:23:29.285Z,8.13
2022-11-18T12:25:57.404Z,12.87
2022-11-18T12:28:32.106Z,13.80
2022-11-18T12:31:20.595Z,8.70
2022-11-18T12:33:55.580Z,8.10
2022-11-18T12:36:27.605Z,9.23
2022-11-18T12:38:55.234Z,8.47
2022-11-18T12:42:11.237Z,9.70
2022-11-18T12:44:39.434Z,9.30
2022-11-18T12:47:07.540Z,11.53
2022-11-18T12:49:34.112Z,10.13
2022-11-18T12:52:03.762Z,9.23
2022-11-18T12:54:41.222Z,10.67
2022-11-18T12:57:17.438Z,11.43
2022-11-18T12:59:44.413Z,9.93
2022-11-18T13:02:10.976Z,10.30
2022-11-18T13:04:44.524Z,7.30
2022-11-18T13:07:32.961Z,9.80
2022-11-18T13:10:01.888Z,7.60
2022-11-18T13:12:30.460Z,13.47
2022-11-18T13:15:17.212Z,8.87
2022-11-18T13:17:54.668Z,6.90
2022-11-18T13:20:36.238Z,29.47
2022-11-18T13:23:33.471Z,7.83
2022-11-18T13:26:04.747Z,5.40
2022-11-18T13:28:40.401Z,9.27
2022-11-18T13:31:12.465Z,8.17
2022-11-18T13:33:40.073Z,6.43
2022-11-18T13:36:23.629Z,6.83
2022-11-18T13:38:56.854Z,7.07
2022-11-18T13:41:24.630Z,7.07
2022-11-18T13:43:54.162Z,4.20
2022-11-18T13:46:22.256Z,3.57
2022-11-18T13:48:58.772Z,5.10
2022-11-18T13:51:26.429Z,3.00
2022-11-18T13:53:53.279Z,6.53
2022-11-18T13:56:27.059Z,3.60
2022-11-18T13:59:17.767Z,4.93
2022-11-18T14:01:46.037Z,2.40
2022-11-18T14:04:22.698Z,4.20
2022-11-18T14:06:49.940Z,2.83
2022-11-18T14:09:30.681Z,3.00
2022-11-18T14:12:02.838Z,2.70
2022-11-18T14:14:38.026Z,2.77
2022-11-18T14:17:27.892Z,4.40
2022-11-18T14:19:59.949Z,3.87
2022-11-18T14:22:30.826Z,2.80
2022-11-18T14:25:03.796Z,13.57
2022-11-18T14:27:35.447Z,6.00
2022-11-18T14:30:22.010Z,3.80
2022-11-18T14:33:13.749Z,2.23
2022-11-18T14:35:42.557Z,3.30
2022-11-18T14:41:08.875Z,2.47
2022-11-18T14:43:35.559Z,2.60
2022-11-18T14:46:25.823Z,3.50
2022-11-18T14:48:52.456Z,3.53
2022-11-18T14:51:19.073Z,9.20
2022-11-18T14:53:45.759Z,3.50
2022-11-18T14:56:19.825Z,3.67
2022-11-18T14:58:46.576Z,7.03
2022-11-18T15:01:13.706Z,2.90
2022-11-18T15:03:40.522Z,3.50
2022-11-18T15:06:13.827Z,4.40
2022-11-18T15:08:41.020Z,5.23
2022-11-18T15:11:07.616Z,5.87
2022-11-18T15:13:34.236Z,2.50
2022-11-18T15:16:10.677Z,4.90
2022-11-18T15:18:37.256Z,7.23
2022-11-18T15:21:03.913Z,2.90
2022-11-18T15:23:30.504Z,6.53
2022-11-18T15:25:57.171Z,2.53
2022-11-18T15:28:23.882Z,7.37
2022-11-18T15:30:50.545Z,5.77
2022-11-18T15:33:17.174Z,4.13
2022-11-18T15:35:43.794Z,5.33
2022-11-18T15:38:11.334Z,16.37
2022-11-18T15:40:38.738Z,96.73
2022-11-18T15:43:05.366Z,19.07
2022-11-18T15:45:31.954Z,5.53
2022-11-18T15:47:58.593Z,5.23
2022-11-18T15:50:25.278Z,3.83
2022-11-18T15:52:51.889Z,7.20
2022-11-18T15:55:18.462Z,2.97
2022-11-18T15:57:45.086Z,5.40
2022-11-18T16:00:12.379Z,8.27
2022-11-18T16:02:39.137Z,6.03
2022-11-18T16:05:06.189Z,4.63
2022-11-18T16:07:32.866Z,6.80
2022-11-18T16:10:18.349Z,5.60
2022-11-18T16:12:47.971Z,6.00
2022-11-18T16:15:34.091Z,7.53
2022-11-18T16:18:01.483Z,7.80
2022-11-18T16:20:29.051Z,5.27
2022-11-18T16:22:57.296Z,5.63
2022-11-18T16:25:25.056Z,6.80
2022-11-18T16:27:51.959Z,6.00
2022-11-18T16:30:37.277Z,9.30
2022-11-18T16:33:03.970Z,6.80
2022-11-18T16:35:30.717Z,3.97
2022-11-18T16:37:57.456Z,4.60
2022-11-18T16:40:24.120Z,7.70
2022-11-18T16:42:52.126Z,11.47
2022-11-18T16:45:19.466Z,12.93
2022-11-18T16:47:46.268Z,5.20
2022-11-18T16:50:12.902Z,8.80
2022-11-18T16:52:39.589Z,4.67
2022-11-18T16:55:06.466Z,11.00
2022-11-18T16:57:33.267Z,8.60
2022-11-18T16:59:59.981Z,6.30
2022-11-18T17:02:26.740Z,3.53
2022-11-18T17:04:53.378Z,6.33
2022-11-18T17:07:20.581Z,4.43
2022-11-18T17:09:47.307Z,6.80
2022-11-18T17:12:13.957Z,3.37
2022-11-18T17:14:40.596Z,6.97
2022-11-18T17:17:07.791Z,5.57
2022-11-18T17:19:34.361Z,3.70
2022-11-18T17:22:01.031Z,6.63
2022-11-18T17:24:27.710Z,5.23
2022-11-18T17:26:55.294Z,5.47
2022-11-18T17:29:22.174Z,3.90
2022-11-18T17:31:49.224Z,3.90
2022-11-18T17:34:16.757Z,6.40
2022-11-18T17:36:43.656Z,3.80
2022-11-18T17:39:11.685Z,3.93
2022-11-18T17:41:57.414Z,4.03
2022-11-18T17:44:24.577Z,5.10
2022-11-18T17:46:51.652Z,6.03
2022-11-18T17:49:21.091Z,2.10
2022-11-18T17:51:48.135Z,5.77
2022-11-18T17:54:14.956Z,4.93
2022-11-18T17:56:41.760Z,2.77
2022-11-18T17:59:08.668Z,8.90
2022-11-18T18:01:35.781Z,6.23
2022-11-18T18:04:02.912Z,5.13
2022-11-18T18:06:29.559Z,3.13
2022-11-18T18:08:57.372Z,3.70
2022-11-18T18:11:24.718Z,3.53
2022-11-18T18:14:09.890Z,2.53
2022-11-18T18:16:36.749Z,3.70
2022-11-18T18:19:05.883Z,2.83
2022-11-18T18:21:32.699Z,3.87
2022-11-18T18:23:59.818Z,3.20
2022-11-18T18:26:31.281Z,5.97
2022-11-18T18:28:59.945Z,4.23
2022-11-18T18:31:28.362Z,4.80
2022-11-18T18:33:55.362Z,35.17
2022-11-18T18:36:22.314Z,18.57
2022-11-18T18:38:48.936Z,8.27
2022-11-18T18:41:21.017Z,21.00
2022-11-18T18:43:48.838Z,5.30
2022-11-18T18:46:31.883Z,7.53
2022-11-18T18:49:10.885Z,12.60
2022-11-18T18:51:45.574Z,5.17
2022-11-18T18:54:14.400Z,5.97
2022-11-18T18:56:41.720Z,3.80
2022-11-18T18:59:09.272Z,5.70
2022-11-18T19:01:37.650Z,6.83
2022-11-18T19:04:06.500Z,4.80
2022-11-18T19:06:59.319Z,4.27
2022-11-18T19:09:25.954Z,8.27
2022-11-18T19:12:21.896Z,5.73
2022-11-18T19:14:48.630Z,7.60
2022-11-18T19:17:15.401Z,4.33
2022-11-18T19:20:01.473Z,6.17
2022-11-18T19:22:33.085Z,7.50
2022-11-18T19:25:01.390Z,6.27
2022-11-18T19:27:29.389Z,2.53
2022-11-18T19:29:56.137Z,5.87
2022-11-18T19:32:23.439Z,3.60
2022-11-18T19:34:50.059Z,3.57
2022-11-18T19:37:16.679Z,4.13
2022-11-18T19:39:43.279Z,4.07
2022-11-18T19:42:10.933Z,5.67
2022-11-18T19:44:38.210Z,4.17
2022-11-18T19:47:04.977Z,3.53
2022-11-18T19:49:31.605Z,3.37
2022-11-18T19:51:58.170Z,2.33
2022-11-18T19:54:24.778Z,3.20
2022-11-18T19:56:51.417Z,5.23
2022-11-18T19:59:18.203Z,3.23
2022-11-18T20:01:45.048Z,6.47
2022-11-18T20:04:11.712Z,5.60
2022-11-18T20:06:38.347Z,2.53
2022-11-18T20:09:09.436Z,4.70
2022-11-18T20:11:36.376Z,2.67
2022-11-18T20:14:03.120Z,2.30
2022-11-18T20:16:29.943Z,4.53
2022-11-18T20:18:59.155Z,5.63
2022-11-18T20:21:27.538Z,4.37
2022-11-18T20:24:01.897Z,3.17
2022-11-18T20:26:32.439Z,3.00
2022-11-18T20:28:59.267Z,6.73
2022-11-18T20:31:26.766Z,6.80
2022-11-18T20:33:54.723Z,3.40
2022-11-18T20:36:27.243Z,4.23
2022-11-18T20:38:56.465Z,7.30
2022-11-18T20:41:24.604Z,4.33
2022-11-18T20:43:51.609Z,7.33
2022-11-18T20:46:21.237Z,4.20
2022-11-18T20:48:49.369Z,6.07
2022-11-18T20:51:18.212Z,4.80
2022-11-18T20:53:45.327Z,8.37
2022-11-18T20:56:14.296Z,7.97
2022-11-18T20:58:41.595Z,7.03
2022-11-18T21:01:13.148Z,8.43
2022-11-18T21:03:41.079Z,4.73
2022-11-18T21:06:14.378Z,6.00
2022-11-18T21:08:42.420Z,7.30
2022-11-18T21:11:11.136Z,9.40
2022-11-18T21:13:57.051Z,6.90
2022-11-18T21:16:24.679Z,9.90
2022-11-18T21:18:51.567Z,12.13
2022-11-18T21:21:37.377Z,6.77
2022-11-18T21:24:04.410Z,6.20
2022-11-18T21:26:33.237Z,9.70
2022-11-18T21:29:02.088Z,7.10
2022-11-18T21:31:29.808Z,8.47
2022-11-18T21:33:57.070Z,8.13
2022-11-18T21:36:25.425Z,7.60
2022-11-18T21:38:52.202Z,9.43
2022-11-18T21:41:18.980Z,9.13
2022-11-18T21:46:34.702Z,5.00
2022-11-18T21:49:01.917Z,7.40
2022-11-18T21:51:28.605Z,7.53
2022-11-18T21:53:55.209Z,11.67
2022-11-18T21:56:24.974Z,10.17
2022-11-18T21:58:52.506Z,7.70
2022-11-18T22:01:24.921Z,16.10
2022-11-18T22:04:00.438Z,14.33
2022-11-18T22:06:32.751Z,11.33
2022-11-18T22:08:59.985Z,7.47
2022-11-18T22:11:26.820Z,10.60
2022-11-18T22:13:53.731Z,7.73
2022-11-18T22:16:22.554Z,7.57
2022-11-18T22:18:56.486Z,13.43
2022-11-18T22:21:28.859Z,7.17
2022-11-18T22:24:00.061Z,9.83
2022-11-18T22:26:27.566Z,8.20
2022-11-18T22:28:56.782Z,9.10
2022-11-18T22:31:25.073Z,8.20
2022-11-18T22:33:52.327Z,6.57
2022-11-18T22:36:21.486Z,7.30
2022-11-18T22:38:48.208Z,8.77
2022-11-18T22:41:38.262Z,10.70
2022-11-18T22:44:08.074Z,9.00
2022-11-18T22:46:36.470Z,6.80
2022-11-18T22:49:03.271Z,6.97
2022-11-18T22:51:29.893Z,6.97
2022-11-18T22:54:16.010Z,7.63
2022-11-18T22:56:43.284Z,4.50
2022-11-18T22:59:13.318Z,7.07
2022-11-18T23:01:40.262Z,8.27
2022-11-18T23:04:07.300Z,8.20
2022-11-18T23:06:33.907Z,9.67
2022-11-18T23:09:00.584Z,11.30
2022-11-18T23:11:46.080Z,7.83
2022-11-18T23:14:12.656Z,7.53
2022-11-18T23:16:41.579Z,4.40
2022-11-18T23:19:13.812Z,13.10
2022-11-18T23:21:41.046Z,9.27
2022-11-18T23:24:11.368Z,7.90
2022-11-18T23:26:38.092Z,5.77
2022-11-18T23:29:04.763Z,6.70
2022-11-18T23:31:31.691Z,6.57
2022-11-18T23:33:58.834Z,9.70
2022-11-18T23:36:26.719Z,6.00
2022-11-18T23:38:53.856Z,6.17
2022-11-18T23:41:21.395Z,12.67
2022-11-18T23:43:48.773Z,7.37
2022-11-18T23:46:17.471Z,8.03
2022-11-18T23:48:44.798Z,9.80
2022-11-18T23:51:17.902Z,6.77
2022-11-18T23:53:45.992Z,8.90
2022-11-18T23:56:15.528Z,7.67
2022-11-18T23:58:43.856Z,7.63
